Time;durP1;ratioP1;P1;durP2;ratioP2;P2;SDS_P1;SDS_P2;PMS_P1;PMS_P2;Temp;Humidity;BMP_temperature;BMP_pressure;BME280_temperature;BME280_humidity;BME280_pressure;Samples;Min_cycle;Max_cycle;Signal;HPM_P1;HPM_P2
2022/07/24 00:01:06;;;;;;;8.13;4.50;;;16.40;99.90;;;;;;5043611;28;20205;-74
2022/07/24 00:03:33;;;;;;;6.47;4.55;;;16.40;99.90;;;;;;5045722;28;20580;-75
2022/07/24 00:06:00;;;;;;;6.05;5.03;;;16.40;99.90;;;;;;5046435;28;20295;-75
2022/07/24 00:08:27;;;;;;;5.75;5.25;;;16.30;99.90;;;;;;5042966;28;20292;-74
2022/07/24 00:10:54;;;;;;;7.97;5.28;;;16.20;99.90;;;;;;5041042;28;20312;-74
2022/07/24 00:13:20;;;;;;;7.13;5.07;;;16.30;99.90;;;;;;5047831;28;20308;-75
2022/07/24 00:15:49;;;;;;;7.88;6.43;;;16.20;99.90;;;;;;5050472;28;20309;-75
2022/07/24 00:18:16;;;;;;;9.45;6.68;;;16.20;99.90;;;;;;5049318;28;20711;-75
2022/07/24 00:20:43;;;;;;;7.97;5.43;;;16.10;99.90;;;;;;5038591;28;20232;-75
2022/07/24 00:23:09;;;;;;;9.02;6.55;;;16.10;99.90;;;;;;5048397;28;20625;-75
2022/07/24 00:25:36;;;;;;;6.38;5.78;;;16.10;99.90;;;;;;5041764;28;20590;-75
2022/07/24 00:28:03;;;;;;;7.07;6.28;;;16.10;99.90;;;;;;5036791;28;20196;-75
2022/07/24 00:30:30;;;;;;;6.93;5.10;;;16.10;99.90;;;;;;5043432;28;20215;-75
2022/07/24 00:32:58;;;;;;;6.55;5.05;;;16.10;99.90;;;;;;5033260;28;20226;-76
2022/07/24 00:35:27;;;;;;;6.97;5.85;;;16.10;99.90;;;;;;5039711;28;20213;-76
2022/07/24 00:37:54;;;;;;;5.53;4.93;;;16.00;99.90;;;;;;5048992;28;20279;-76
2022/07/24 00:40:22;;;;;;;6.47;5.13;;;16.10;99.90;;;;;;5050015;28;20211;-76
2022/07/24 00:42:49;;;;;;;8.85;6.50;;;16.10;99.90;;;;;;5048975;28;20598;-75
2022/07/24 00:45:16;;;;;;;5.07;4.38;;;16.10;99.90;;;;;;5048384;28;20257;-76
2022/07/24 00:47:42;;;;;;;7.95;4.80;;;16.10;99.90;;;;;;5046539;28;20192;-75
2022/07/24 00:50:11;;;;;;;8.82;5.35;;;16.10;99.90;;;;;;5046035;28;20212;-75
2022/07/24 00:52:39;;;;;;;6.47;4.47;;;16.00;99.90;;;;;;5049563;28;20210;-75
2022/07/24 00:55:07;;;;;;;6.15;5.18;;;16.00;99.90;;;;;;5040605;28;20247;-75
2022/07/24 00:57:34;;;;;;;7.63;6.05;;;16.00;99.90;;;;;;5047200;28;20199;-75
2022/07/24 01:00:01;;;;;;;6.82;5.72;;;16.00;99.90;;;;;;5050764;28;20275;-75
2022/07/24 01:02:28;;;;;;;7.85;6.30;;;16.00;99.90;;;;;;5048400;28;20235;-75
2022/07/24 01:04:56;;;;;;;8.27;5.70;;;16.00;99.90;;;;;;5065379;28;20214;-75
2022/07/24 01:07:24;;;;;;;6.57;5.60;;;16.00;99.90;;;;;;5045401;28;20196;-76
2022/07/24 01:09:52;;;;;;;7.18;4.97;;;16.00;99.90;;;;;;5055181;28;20227;-75
2022/07/24 01:12:20;;;;;;;6.65;6.05;;;16.00;99.90;;;;;;5054374;28;20297;-74
2022/07/24 01:14:47;;;;;;;5.45;4.95;;;16.00;99.90;;;;;;5049008;28;20235;-76
2022/07/24 01:17:17;;;;;;;7.45;6.53;;;16.00;99.90;;;;;;5054009;28;20291;-76
2022/07/24 01:19:44;;;;;;;7.30;5.50;;;16.00;99.90;;;;;;5049645;28;20204;-74
2022/07/24 01:22:12;;;;;;;8.02;7.05;;;15.90;99.90;;;;;;5053515;28;20250;-75
2022/07/24 01:24:39;;;;;;;5.97;5.40;;;15.90;99.90;;;;;;5047997;28;20320;-75
2022/07/24 01:27:07;;;;;;;8.88;5.90;;;15.90;99.90;;;;;;5051322;28;20283;-74
2022/07/24 01:29:34;;;;;;;6.07;5.53;;;15.80;99.90;;;;;;5050432;28;20973;-75
2022/07/24 01:32:01;;;;;;;6.38;5.78;;;15.80;99.90;;;;;;5052806;28;20228;-74
2022/07/24 01:34:28;;;;;;;12.43;6.72;;;15.80;99.90;;;;;;5045551;28;20703;-75
2022/07/24 01:36:56;;;;;;;7.68;5.70;;;15.70;99.90;;;;;;5050438;28;20211;-75
2022/07/24 01:39:24;;;;;;;7.47;5.72;;;15.70;99.90;;;;;;5057019;28;20206;-75
2022/07/24 01:41:51;;;;;;;6.55;5.93;;;15.60;99.90;;;;;;5038428;28;20204;-74
2022/07/24 01:44:18;;;;;;;7.05;5.28;;;15.60;99.90;;;;;;5051109;28;20259;-75
2022/07/24 01:46:45;;;;;;;9.65;6.40;;;15.60;99.90;;;;;;5044431;28;20195;-75
2022/07/24 01:49:13;;;;;;;7.25;5.88;;;15.60;99.90;;;;;;5040504;28;20212;-75
2022/07/24 01:51:40;;;;;;;6.03;5.43;;;15.70;99.90;;;;;;5045114;28;20210;-75
2022/07/24 01:54:07;;;;;;;7.00;5.65;;;15.70;99.90;;;;;;5048737;28;20219;-76
2022/07/24 01:56:35;;;;;;;11.18;6.25;;;15.60;99.90;;;;;;5047168;28;20191;-75
2022/07/24 01:59:02;;;;;;;7.88;6.00;;;15.50;99.90;;;;;;5054344;28;20283;-75
2022/07/24 02:01:30;;;;;;;8.27;5.57;;;15.50;99.90;;;;;;5047000;28;20196;-76
2022/07/24 02:03:57;;;;;;;6.95;6.13;;;15.50;99.90;;;;;;5048821;28;20614;-74
2022/07/24 02:06:24;;;;;;;7.22;6.50;;;15.50;99.90;;;;;;5052932;28;20223;-75
2022/07/24 02:08:51;;;;;;;8.95;6.60;;;15.50;99.90;;;;;;5044663;28;20196;-75
2022/07/24 02:11:19;;;;;;;6.28;5.53;;;15.50;99.90;;;;;;5051609;28;20755;-74
2022/07/24 02:13:47;;;;;;;6.65;5.95;;;15.50;99.90;;;;;;5053700;28;20685;-73
2022/07/24 02:16:14;;;;;;;8.30;7.28;;;15.60;99.90;;;;;;5054817;28;20251;-75
2022/07/24 02:18:41;;;;;;;10.55;7.03;;;15.50;99.90;;;;;;5050850;28;20228;-76
2022/07/24 02:21:08;;;;;;;8.68;6.95;;;15.50;99.90;;;;;;5054153;28;20214;-74
2022/07/24 02:23:35;;;;;;;6.68;6.07;;;15.50;99.90;;;;;;5046917;28;20603;-75
2022/07/24 02:26:01;;;;;;;8.98;6.97;;;15.50;99.90;;;;;;5048607;28;20200;-74
2022/07/24 02:28:28;;;;;;;8.07;6.50;;;15.50;99.90;;;;;;5049397;28;20205;-74
2022/07/24 02:30:57;;;;;;;8.98;5.88;;;15.40;99.90;;;;;;5053199;28;20537;-75
2022/07/24 02:33:24;;;;;;;8.85;6.35;;;15.40;99.90;;;;;;5049783;28;20244;-74
2022/07/24 02:35:51;;;;;;;7.97;7.18;;;15.40;99.90;;;;;;5053569;28;20550;-76
2022/07/24 02:38:17;;;;;;;7.03;6.32;;;15.40;99.90;;;;;;5045184;28;20199;-74
2022/07/24 02:40:44;;;;;;;9.50;6.25;;;15.40;99.90;;;;;;5048912;28;20210;-74
2022/07/24 02:43:11;;;;;;;9.60;6.75;;;15.40;99.90;;;;;;5048134;28;20227;-75
2022/07/24 02:45:38;;;;;;;8.55;6.60;;;15.40;99.90;;;;;;5046749;28;20238;-74
2022/07/24 02:48:07;;;;;;;8.38;6.10;;;15.40;99.90;;;;;;5046046;28;20219;-75
2022/07/24 02:50:38;;;;;;;9.32;7.72;;;15.40;99.90;;;;;;5046705;28;20278;-74
2022/07/24 02:53:06;;;;;;;11.23;8.65;;;15.20;99.90;;;;;;5044428;28;20318;-75
2022/07/24 02:55:33;;;;;;;8.98;6.85;;;15.20;99.90;;;;;;5046814;28;20216;-74
2022/07/24 02:58:00;;;;;;;6.50;5.90;;;15.30;99.90;;;;;;5048205;28;20282;-74
2022/07/24 03:00:27;;;;;;;10.95;6.45;;;15.20;99.90;;;;;;5065116;28;20227;-75
2022/07/24 03:02:55;;;;;;;7.15;6.35;;;15.20;99.90;;;;;;5052959;28;20255;-75
2022/07/24 03:05:24;;;;;;;8.23;6.32;;;15.20;99.90;;;;;;5053915;28;20278;-76
2022/07/24 03:07:51;;;;;;;8.43;6.95;;;15.20;99.90;;;;;;5051460;28;20207;-75
2022/07/24 03:10:18;;;;;;;7.20;5.82;;;15.20;99.90;;;;;;5048523;28;20209;-73
2022/07/24 03:12:44;;;;;;;6.13;5.53;;;15.20;99.90;;;;;;5043468;28;20200;-75
2022/07/24 03:15:13;;;;;;;7.32;6.60;;;15.20;99.90;;;;;;5045024;28;20652;-75
2022/07/24 03:17:40;;;;;;;5.90;5.35;;;15.20;99.90;;;;;;5051076;28;20655;-75
2022/07/24 03:20:11;;;;;;;7.05;6.30;;;15.20;99.90;;;;;;5043386;28;20270;-75
2022/07/24 03:22:39;;;;;;;6.72;6.03;;;15.20;99.90;;;;;;5046147;28;20311;-74
2022/07/24 03:25:06;;;;;;;8.07;6.20;;;15.20;99.90;;;;;;5044005;28;20200;-74
2022/07/24 03:27:33;;;;;;;8.82;6.20;;;15.20;99.90;;;;;;5049268;28;20215;-74
2022/07/24 03:30:00;;;;;;;7.32;6.55;;;15.30;99.90;;;;;;5034183;28;20196;-74
2022/07/24 03:32:27;;;;;;;7.57;5.80;;;15.30;99.90;;;;;;5046479;28;20203;-74
2022/07/24 03:34:54;;;;;;;6.18;5.43;;;15.30;99.90;;;;;;5044803;28;20206;-74
2022/07/24 03:37:21;;;;;;;8.00;6.13;;;15.40;99.90;;;;;;5046991;28;20206;-73
2022/07/24 03:39:49;;;;;;;7.13;6.30;;;15.30;99.90;;;;;;5044335;28;21261;-74
2022/07/24 03:42:16;;;;;;;7.25;5.72;;;15.30;99.90;;;;;;5044067;28;20604;-74
2022/07/24 03:44:43;;;;;;;7.00;5.43;;;15.30;99.90;;;;;;5041665;28;20302;-74
2022/07/24 03:47:10;;;;;;;6.32;5.68;;;15.30;99.90;;;;;;5049635;28;20238;-74
2022/07/24 03:49:37;;;;;;;7.10;6.03;;;15.30;99.90;;;;;;5050574;28;20777;-74
2022/07/24 03:52:05;;;;;;;7.60;6.80;;;15.30;99.90;;;;;;5043425;28;20200;-75
2022/07/24 03:54:31;;;;;;;7.05;5.60;;;15.30;99.90;;;;;;5040658;28;20265;-73
2022/07/24 03:57:00;;;;;;;8.20;6.40;;;15.30;99.90;;;;;;5039408;28;20757;-74
2022/07/24 03:59:27;;;;;;;7.35;5.93;;;15.30;99.90;;;;;;5040979;28;20225;-74
2022/07/24 04:01:53;;;;;;;7.80;6.00;;;15.30;99.90;;;;;;5048654;28;20240;-74
2022/07/24 04:04:21;;;;;;;8.63;6.40;;;15.40;99.90;;;;;;5045220;28;20230;-75
2022/07/24 04:06:48;;;;;;;7.45;5.00;;;15.40;99.90;;;;;;5051703;28;20654;-74
2022/07/24 04:09:15;;;;;;;6.80;6.10;;;15.40;99.90;;;;;;5046583;28;20278;-75
2022/07/24 04:11:44;;;;;;;7.07;6.38;;;15.50;99.90;;;;;;5049545;28;20255;-74
2022/07/24 04:14:12;;;;;;;6.80;5.65;;;15.50;99.90;;;;;;5047582;28;20354;-73
2022/07/24 04:16:39;;;;;;;6.10;5.32;;;15.60;99.90;;;;;;5044597;28;20204;-76
2022/07/24 04:19:06;;;;;;;8.98;5.55;;;15.60;99.90;;;;;;5043106;28;20205;-75
2022/07/24 04:21:33;;;;;;;5.70;4.63;;;15.70;99.90;;;;;;5050223;28;20215;-75
2022/07/24 04:24:00;;;;;;;6.43;5.80;;;15.70;99.90;;;;;;5051533;28;20311;-74
2022/07/24 04:26:27;;;;;;;5.45;4.70;;;15.90;99.90;;;;;;5048516;28;20393;-75
2022/07/24 04:28:54;;;;;;;8.10;5.90;;;16.00;99.90;;;;;;5050491;28;20223;-75
2022/07/24 04:31:22;;;;;;;6.47;5.88;;;16.10;99.90;;;;;;5043195;28;20327;-74
2022/07/24 04:33:49;;;;;;;7.10;4.60;;;16.30;99.90;;;;;;5042233;28;20763;-74
2022/07/24 04:36:16;;;;;;;8.50;6.15;;;16.90;99.90;;;;;;5041791;28;20222;-74
2022/07/24 04:38:43;;;;;;;4.53;4.13;;;17.50;99.90;;;;;;5045668;28;20664;-74
2022/07/24 04:41:10;;;;;;;6.07;4.70;;;18.10;99.90;;;;;;5048689;28;20445;-75
2022/07/24 04:43:37;;;;;;;4.13;3.83;;;18.60;99.90;;;;;;5045489;28;20490;-75
2022/07/24 04:46:04;;;;;;;6.40;3.90;;;19.30;99.90;;;;;;5051375;28;20474;-75
2022/07/24 04:48:32;;;;;;;5.80;5.30;;;19.90;99.90;;;;;;5044093;28;20930;-75
2022/07/24 04:50:59;;;;;;;6.73;3.70;;;20.70;99.90;;;;;;5053722;28;20471;-75
2022/07/24 04:53:26;;;;;;;4.93;4.00;;;20.90;99.90;;;;;;5060699;28;20470;-75
2022/07/24 04:55:53;;;;;;;3.80;3.50;;;21.50;99.90;;;;;;5048695;28;20508;-75
2022/07/24 04:58:20;;;;;;;4.40;3.37;;;22.00;99.90;;;;;;5052147;28;20448;-75
2022/07/24 05:00:47;;;;;;;5.17;3.67;;;22.50;99.90;;;;;;5050344;28;20441;-75
2022/07/24 05:03:14;;;;;;;3.50;2.80;;;22.80;99.90;;;;;;5053299;28;21015;-75
2022/07/24 05:05:42;;;;;;;4.60;3.33;;;23.30;99.90;;;;;;5046481;28;20949;-73
2022/07/24 05:08:09;;;;;;;3.93;3.50;;;23.60;98.50;;;;;;5047969;28;20545;-75
2022/07/24 05:10:37;;;;;;;3.50;2.97;;;23.90;96.70;;;;;;5049391;28;20809;-75
2022/07/24 05:13:04;;;;;;;4.13;3.33;;;23.50;97.10;;;;;;5051379;28;20473;-75
2022/07/24 05:15:32;;;;;;;3.37;3.07;;;23.60;97.10;;;;;;5050049;28;20999;-75
2022/07/24 05:17:59;;;;;;;4.20;3.77;;;23.80;96.50;;;;;;5053703;28;20517;-75
2022/07/24 05:20:26;;;;;;;4.17;3.40;;;24.00;95.90;;;;;;5046995;28;20455;-74
2022/07/24 05:22:54;;;;;;;4.27;3.17;;;24.20;95.50;;;;;;5050838;28;20536;-73
2022/07/24 05:25:22;;;;;;;5.40;3.27;;;23.90;95.60;;;;;;5048031;28;20562;-73
2022/07/24 05:27:49;;;;;;;4.43;2.73;;;23.80;95.70;;;;;;5053464;28;20489;-75
2022/07/24 05:30:16;;;;;;;5.47;2.70;;;23.60;96.20;;;;;;5038111;28;20454;-73
2022/07/24 05:32:42;;;;;;;9.77;3.00;;;23.60;96.40;;;;;;5056055;28;20512;-73
2022/07/24 05:35:10;;;;;;;4.93;3.27;;;23.00;97.10;;;;;;5050709;28;20456;-73
2022/07/24 05:37:37;;;;;;;4.10;3.67;;;23.00;97.30;;;;;;5050295;28;20553;-73
2022/07/24 05:40:06;;;;;;;3.20;2.90;;;22.80;97.70;;;;;;5048274;28;20435;-72
2022/07/24 05:42:33;;;;;;;3.60;3.30;;;23.00;97.60;;;;;;5048514;28;20446;-75
2022/07/24 05:45:00;;;;;;;4.77;3.10;;;23.00;97.50;;;;;;5044367;28;20449;-75
2022/07/24 05:47:27;;;;;;;3.40;3.10;;;23.20;97.70;;;;;;5040184;28;20951;-75
2022/07/24 05:49:54;;;;;;;2.87;2.57;;;23.00;97.00;;;;;;5044709;28;20450;-74
2022/07/24 05:52:21;;;;;;;3.67;2.50;;;23.30;97.20;;;;;;5045083;28;20462;-74
2022/07/24 05:54:48;;;;;;;5.37;2.80;;;23.60;96.40;;;;;;5049553;28;20529;-73
2022/07/24 05:57:16;;;;;;;3.10;2.57;;;24.10;95.80;;;;;;5049536;28;20470;-74
2022/07/24 05:59:43;;;;;;;3.20;2.40;;;24.40;94.60;;;;;;5040466;28;20470;-73
2022/07/24 06:02:10;;;;;;;5.53;3.00;;;25.00;93.80;;;;;;5048388;28;20493;-74
2022/07/24 06:04:41;;;;;;;3.40;2.93;;;25.30;92.90;;;;;;5055027;28;20461;-73
2022/07/24 06:07:09;;;;;;;3.20;2.80;;;24.70;93.20;;;;;;5053425;28;20810;-73
2022/07/24 06:09:37;;;;;;;6.37;2.70;;;24.90;93.10;;;;;;5046525;28;20587;-73
2022/07/24 06:12:05;;;;;;;3.23;2.87;;;25.00;93.00;;;;;;5055312;28;20460;-75
2022/07/24 06:14:33;;;;;;;3.80;2.63;;;24.80;93.20;;;;;;5050073;28;20553;-75
2022/07/24 06:17:00;;;;;;;4.97;3.00;;;25.30;92.80;;;;;;5048269;28;20532;-74
2022/07/24 06:19:27;;;;;;;5.00;2.20;;;25.50;92.40;;;;;;5046430;28;20477;-75
2022/07/24 06:21:54;;;;;;;3.37;2.40;;;26.00;91.80;;;;;;5047918;28;20465;-75
2022/07/24 06:24:22;;;;;;;2.97;2.00;;;26.60;91.20;;;;;;5055018;28;20469;-74
2022/07/24 06:26:49;;;;;;;2.90;2.60;;;27.10;90.00;;;;;;5053776;28;20992;-75
2022/07/24 06:29:16;;;;;;;4.70;2.37;;;27.70;88.60;;;;;;5046300;28;20438;-74
2022/07/24 06:31:44;;;;;;;2.50;2.30;;;28.30;86.10;;;;;;5043373;28;20447;-74
2022/07/24 06:34:13;;;;;;;2.70;2.07;;;28.70;84.00;;;;;;5048794;28;21190;-75
2022/07/24 06:36:40;;;;;;;7.83;3.50;;;28.90;82.90;;;;;;5042649;28;20515;-74
2022/07/24 06:39:08;;;;;;;2.00;1.80;;;29.50;81.40;;;;;;5050201;28;20462;-74
2022/07/24 06:41:35;;;;;;;2.57;2.30;;;29.70;79.70;;;;;;5051588;28;20947;-74
2022/07/24 06:44:03;;;;;;;2.23;2.00;;;29.90;79.00;;;;;;5045954;28;20558;-74
2022/07/24 06:46:29;;;;;;;2.77;2.30;;;30.30;78.80;;;;;;5055164;28;20442;-75
2022/07/24 06:48:58;;;;;;;3.50;2.63;;;30.00;77.60;;;;;;5067645;28;20442;-73
2022/07/24 06:51:25;;;;;;;2.70;2.20;;;29.30;78.50;;;;;;5055987;28;20470;-74
2022/07/24 06:53:52;;;;;;;6.90;2.77;;;29.20;79.50;;;;;;5051000;28;20558;-74
2022/07/24 06:56:19;;;;;;;2.67;1.60;;;29.40;79.40;;;;;;5046727;28;20867;-75
2022/07/24 06:58:48;;;;;;;3.50;2.30;;;29.90;78.90;;;;;;5043890;28;21064;-73
2022/07/24 07:01:15;;;;;;;5.20;2.07;;;29.60;78.30;;;;;;5046970;28;20538;-73
2022/07/24 07:03:42;;;;;;;2.20;1.63;;;29.80;78.50;;;;;;5045759;28;20557;-74
2022/07/24 07:06:11;;;;;;;2.10;1.70;;;30.00;78.80;;;;;;5046511;28;20466;-74
2022/07/24 07:08:38;;;;;;;2.40;2.10;;;30.40;78.00;;;;;;5047329;28;20465;-73
2022/07/24 07:11:05;;;;;;;3.13;1.87;;;30.30;77.20;;;;;;5048825;28;20545;-74
2022/07/24 07:13:32;;;;;;;4.13;2.13;;;30.80;77.00;;;;;;5054258;28;20477;-73
2022/07/24 07:15:59;;;;;;;3.60;1.87;;;31.40;75.30;;;;;;5052601;28;20866;-73
2022/07/24 07:18:25;;;;;;;5.27;2.03;;;31.10;74.60;;;;;;5046767;28;20439;-74
2022/07/24 07:20:53;;;;;;;3.53;2.00;;;31.60;73.40;;;;;;5051296;28;20885;-74
2022/07/24 07:23:23;;;;;;;3.67;2.13;;;31.80;74.20;;;;;;5046849;28;20493;-74
2022/07/24 07:25:51;;;;;;;1.60;1.50;;;32.10;73.00;;;;;;5039458;28;20497;-74
2022/07/24 07:28:18;;;;;;;4.93;2.20;;;32.20;72.40;;;;;;5051788;28;20536;-74
2022/07/24 07:30:45;;;;;;;4.00;1.87;;;32.30;72.30;;;;;;5047068;28;20442;-75
2022/07/24 07:33:12;;;;;;;2.03;1.80;;;32.40;71.70;;;;;;5045654;28;20569;-74
2022/07/24 07:35:39;;;;;;;3.10;1.83;;;32.50;70.90;;;;;;5038698;28;20536;-74
2022/07/24 07:38:06;;;;;;;3.27;2.00;;;31.90;71.30;;;;;;5044409;28;21009;-74
2022/07/24 07:40:34;;;;;;;3.30;1.90;;;30.90;72.00;;;;;;5049043;28;20521;-75
2022/07/24 07:43:01;;;;;;;5.90;2.10;;;31.80;72.90;;;;;;5047104;28;20476;-74
2022/07/24 07:45:28;;;;;;;5.67;2.37;;;31.90;71.10;;;;;;5039995;28;20534;-75
2022/07/24 07:47:55;;;;;;;2.77;1.93;;;32.10;71.00;;;;;;5047218;28;20444;-75
2022/07/24 07:50:22;;;;;;;5.23;2.20;;;32.60;69.90;;;;;;5050606;28;20917;-74
2022/07/24 07:52:49;;;;;;;1.77;1.67;;;32.90;68.60;;;;;;5043394;28;20480;-74
2022/07/24 07:55:16;;;;;;;3.23;2.00;;;32.80;68.70;;;;;;5051915;28;20469;-75
2022/07/24 07:57:44;;;;;;;3.93;2.57;;;33.40;68.20;;;;;;5050189;28;20510;-74
2022/07/24 08:00:12;;;;;;;2.40;1.90;;;33.30;67.00;;;;;;5048854;28;20533;-75
2022/07/24 08:02:40;;;;;;;6.43;2.87;;;33.20;67.40;;;;;;5040058;28;20454;-74
2022/07/24 08:05:10;;;;;;;3.70;2.30;;;33.50;66.00;;;;;;5042656;28;20474;-74
2022/07/24 08:07:37;;;;;;;7.33;4.43;;;33.70;66.30;;;;;;5045607;28;20524;-74
2022/07/24 08:10:08;;;;;;;2.73;2.27;;;34.20;66.30;;;;;;5053010;28;20474;-74
2022/07/24 08:12:36;;;;;;;4.50;2.77;;;34.60;63.90;;;;;;5050370;28;21026;-74
2022/07/24 08:15:05;;;;;;;3.47;2.63;;;33.50;65.00;;;;;;5044125;28;20538;-74
2022/07/24 08:17:32;;;;;;;3.90;1.97;;;33.20;66.60;;;;;;5050792;28;20469;-74
2022/07/24 08:19:59;;;;;;;2.33;2.13;;;33.60;66.80;;;;;;5043110;28;20522;-73
2022/07/24 08:22:29;;;;;;;2.87;2.33;;;34.40;65.30;;;;;;5045865;28;20536;-73
2022/07/24 08:24:56;;;;;;;4.10;2.77;;;34.60;64.60;;;;;;5050626;28;20438;-74
2022/07/24 08:27:23;;;;;;;4.20;2.87;;;35.00;62.40;;;;;;5048322;28;20446;-74
2022/07/24 08:29:50;;;;;;;3.83;3.10;;;34.50;62.10;;;;;;5050902;28;20529;-74
2022/07/24 08:32:19;;;;;;;3.67;3.37;;;34.20;63.40;;;;;;5052111;28;20473;-75
2022/07/24 08:34:45;;;;;;;3.53;3.07;;;34.50;62.90;;;;;;5052006;28;20537;-74
2022/07/24 08:37:14;;;;;;;5.90;3.60;;;34.90;62.20;;;;;;5043585;28;20517;-74
2022/07/24 08:39:41;;;;;;;4.23;3.20;;;35.30;61.40;;;;;;5051753;28;20446;-74
2022/07/24 08:42:09;;;;;;;4.10;3.70;;;35.00;61.20;;;;;;5038832;28;20483;-74
2022/07/24 08:44:36;;;;;;;3.90;3.60;;;35.70;60.10;;;;;;5036584;28;20459;-74
2022/07/24 08:47:03;;;;;;;3.20;3.00;;;35.40;60.00;;;;;;5051542;28;20492;-74
2022/07/24 08:49:33;;;;;;;3.87;3.40;;;35.30;61.00;;;;;;5042484;28;20454;-74
2022/07/24 08:52:03;;;;;;;7.23;4.20;;;35.70;59.20;;;;;;5053408;28;20479;-75
2022/07/24 08:54:30;;;;;;;5.10;4.10;;;35.70;58.60;;;;;;5045638;28;20497;-74
2022/07/24 08:56:56;;;;;;;11.33;4.80;;;35.60;57.70;;;;;;5050565;28;20477;-74
2022/07/24 08:59:24;;;;;;;6.37;3.60;;;35.20;59.40;;;;;;5051261;28;20888;-73
2022/07/24 09:01:52;;;;;;;4.70;4.27;;;34.80;59.40;;;;;;5035187;28;20799;-75
2022/07/24 09:04:39;;;;;;;6.63;4.50;;;34.80;59.40;;;;;;5052486;28;20572;-75
2022/07/24 09:07:10;;;;;;;3.67;3.37;;;35.60;59.00;;;;;;5040776;28;20526;-74
2022/07/24 09:09:37;;;;;;;4.90;3.97;;;35.30;58.20;;;;;;5046857;28;20809;-73
2022/07/24 09:12:09;;;;;;;5.70;5.20;;;35.20;58.30;;;;;;5048250;28;20981;-73
2022/07/24 09:14:39;;;;;;;4.67;3.87;;;35.40;58.10;;;;;;5042199;28;21051;-75
2022/07/24 09:17:08;;;;;;;4.67;4.20;;;35.70;58.10;;;;;;5044171;28;20482;-73
2022/07/24 09:19:54;;;;;;;6.90;4.50;;;35.90;57.40;;;;;;5049412;28;20449;-74
2022/07/24 09:22:33;;;;;;;5.10;4.53;;;36.10;57.80;;;;;;5040669;28;20450;-74
2022/07/24 09:25:22;;;;;;;9.97;5.30;;;36.50;55.70;;;;;;5045022;28;20423;-73
2022/07/24 09:27:51;;;;;;;5.20;4.60;;;36.50;55.50;;;;;;5042733;28;20454;-73
2022/07/24 09:30:28;;;;;;;6.83;4.73;;;36.80;55.30;;;;;;5042011;28;20458;-73
2022/07/24 09:32:57;;;;;;;4.67;4.27;;;36.30;55.40;;;;;;5050035;28;20477;-73
2022/07/24 09:35:31;;;;;;;5.80;5.23;;;36.10;55.50;;;;;;5052283;28;20450;-74
2022/07/24 09:38:00;;;;;;;7.17;4.50;;;35.50;55.70;;;;;;5049074;28;20474;-73
2022/07/24 09:40:31;;;;;;;5.60;5.10;;;35.40;56.50;;;;;;5046472;28;20929;-73
2022/07/24 09:43:14;;;;;;;7.40;4.50;;;34.20;57.00;;;;;;5047469;28;20801;-74
2022/07/24 09:46:00;;;;;;;4.50;4.10;;;33.50;59.00;;;;;;5048282;28;20537;-74
2022/07/24 09:48:30;;;;;;;4.63;4.20;;;33.40;60.40;;;;;;5044613;28;20779;-74
2022/07/24 09:51:01;;;;;;;5.20;4.40;;;33.00;60.60;;;;;;5043220;28;20442;-73
2022/07/24 09:53:30;;;;;;;5.13;4.10;;;33.20;60.70;;;;;;5052742;28;20557;-75
2022/07/24 09:56:00;;;;;;;5.47;4.90;;;33.90;61.30;;;;;;5042813;28;20438;-74
2022/07/24 09:58:27;;;;;;;7.67;5.40;;;34.10;59.50;;;;;;5051477;28;20498;-72
2022/07/24 10:00:56;;;;;;;5.67;5.07;;;34.10;60.00;;;;;;5046452;28;20533;-73
2022/07/24 10:03:26;;;;;;;8.80;4.90;;;33.50;60.20;;;;;;5050055;28;20556;-74
2022/07/24 10:05:56;;;;;;;5.90;3.93;;;33.50;60.80;;;;;;5052882;28;20537;-74
2022/07/24 10:08:25;;;;;;;7.53;4.40;;;33.60;61.40;;;;;;5054653;28;20541;-75
2022/07/24 10:10:53;;;;;;;6.83;5.13;;;34.20;60.50;;;;;;5049571;28;20455;-72
2022/07/24 10:13:21;;;;;;;9.20;5.47;;;34.10;60.00;;;;;;5051851;28;20513;-72
2022/07/24 10:16:03;;;;;;;6.47;4.97;;;34.30;59.90;;;;;;5048300;28;20494;-74
2022/07/24 10:18:39;;;;;;;4.83;3.93;;;34.30;60.10;;;;;;5052398;28;20583;-72
2022/07/24 10:21:10;;;;;;;5.43;4.20;;;34.60;60.30;;;;;;5034400;28;20454;-74
2022/07/24 10:23:57;;;;;;;5.13;4.20;;;34.10;60.10;;;;;;5045931;28;20470;-73
2022/07/24 10:26:34;;;;;;;5.73;4.77;;;34.40;60.40;;;;;;5047451;28;20451;-72
2022/07/24 10:29:07;;;;;;;7.13;5.60;;;34.90;59.20;;;;;;5049335;28;20478;-73
2022/07/24 10:31:36;;;;;;;5.20;4.70;;;34.60;59.00;;;;;;5034475;28;20442;-73
2022/07/24 10:34:07;;;;;;;5.80;4.40;;;34.60;59.20;;;;;;5039657;28;20849;-72
2022/07/24 10:36:40;;;;;;;7.30;5.00;;;34.60;59.20;;;;;;5050117;28;20437;-72
2022/07/24 10:39:17;;;;;;;6.40;4.90;;;34.60;59.20;;;;;;5044589;28;20835;-72
2022/07/24 10:42:00;;;;;;;6.90;5.37;;;33.50;60.00;;;;;;5043066;28;20493;-72
2022/07/24 10:44:27;;;;;;;6.27;5.50;;;33.50;61.30;;;;;;5051152;28;20953;-74
2022/07/24 10:47:07;;;;;;;7.40;5.07;;;33.30;62.40;;;;;;5049429;28;20517;-73
2022/07/24 10:49:49;;;;;;;5.53;4.70;;;32.90;62.40;;;;;;5045727;28;20488;-74
2022/07/24 10:52:27;;;;;;;8.50;5.10;;;32.00;64.60;;;;;;5068302;28;20442;-73
2022/07/24 10:55:26;;;;;;;7.47;4.90;;;31.80;65.50;;;;;;5050124;28;20439;-74
2022/07/24 10:58:01;;;;;;;8.13;4.50;;;32.00;65.20;;;;;;5046427;28;20491;-74
2022/07/24 11:00:34;;;;;;;5.40;4.73;;;31.80;65.80;;;;;;5050635;28;20532;-74
2022/07/24 11:03:05;;;;;;;5.27;4.70;;;31.50;66.10;;;;;;5050350;28;20550;-73
2022/07/24 11:05:34;;;;;;;8.40;5.23;;;31.60;66.00;;;;;;5050629;28;20442;-73
2022/07/24 11:08:37;;;;;;;5.40;4.50;;;31.90;66.30;;;;;;5048547;28;20852;-75
2022/07/24 11:11:14;;;;;;;4.87;4.40;;;31.30;65.50;;;;;;5050557;28;20504;-74
2022/07/24 11:13:52;;;;;;;4.97;4.40;;;31.30;66.60;;;;;;5043762;28;20474;-75
2022/07/24 11:16:33;;;;;;;7.10;5.30;;;31.60;66.90;;;;;;5051270;28;20567;-73
2022/07/24 11:19:29;;;;;;;5.10;4.60;;;31.70;65.90;;;;;;5046292;28;20888;-73
2022/07/24 11:22:11;;;;;;;6.87;4.70;;;31.70;67.00;;;;;;5044756;28;20496;-72
2022/07/24 11:24:42;;;;;;;5.97;5.37;;;31.90;66.40;;;;;;5049921;28;20585;-75
2022/07/24 11:27:20;;;;;;;6.27;5.43;;;31.90;66.10;;;;;;5051565;28;20450;-73
2022/07/24 11:29:52;;;;;;;5.40;4.90;;;31.70;66.80;;;;;;5045912;28;20528;-74
2022/07/24 11:32:19;;;;;;;5.00;4.50;;;31.60;66.80;;;;;;5049300;28;20489;-74
2022/07/24 11:34:47;;;;;;;5.60;5.10;;;31.80;66.80;;;;;;5049404;28;20458;-73
2022/07/24 11:37:14;;;;;;;4.83;4.20;;;31.80;66.50;;;;;;5049308;28;21026;-73
2022/07/24 11:39:43;;;;;;;4.70;4.30;;;32.00;65.90;;;;;;5048543;28;20440;-73
2022/07/24 11:42:14;;;;;;;5.13;4.73;;;32.00;66.00;;;;;;5048090;28;20458;-73
2022/07/24 11:44:42;;;;;;;5.27;4.37;;;32.00;65.40;;;;;;5046681;28;20470;-74
2022/07/24 11:47:13;;;;;;;5.67;5.17;;;31.90;66.10;;;;;;5044635;28;20524;-74
2022/07/24 11:49:42;;;;;;;6.30;5.07;;;31.50;66.30;;;;;;5044228;28;20450;-74
2022/07/24 11:52:13;;;;;;;7.77;5.10;;;31.50;66.50;;;;;;5045087;28;20544;-74
2022/07/24 11:54:41;;;;;;;12.33;4.70;;;31.40;66.90;;;;;;5042310;28;20476;-73
2022/07/24 11:57:18;;;;;;;5.43;4.83;;;31.40;66.60;;;;;;5042561;28;20941;-74
2022/07/24 11:59:47;;;;;;;6.83;4.60;;;31.30;66.40;;;;;;5040438;28;20449;-74
2022/07/24 12:02:14;;;;;;;5.50;5.10;;;31.20;66.30;;;;;;5051119;28;20530;-73
2022/07/24 12:04:42;;;;;;;6.10;4.50;;;31.00;66.60;;;;;;5047015;28;20527;-73
2022/07/24 12:07:11;;;;;;;5.03;4.47;;;31.10;66.20;;;;;;5044791;28;20537;-73
2022/07/24 12:09:48;;;;;;;5.87;4.27;;;31.20;67.50;;;;;;5043216;28;20434;-75
2022/07/24 12:12:25;;;;;;;5.83;4.40;;;31.20;65.60;;;;;;5043787;28;20549;-72
2022/07/24 12:14:54;;;;;;;6.60;5.30;;;31.00;66.40;;;;;;5045324;28;20465;-73
2022/07/24 12:17:22;;;;;;;8.63;5.10;;;30.70;65.80;;;;;;5048191;28;20562;-74
2022/07/24 12:19:54;;;;;;;4.73;4.33;;;30.60;66.70;;;;;;5036999;28;20815;-73
2022/07/24 12:22:23;;;;;;;6.00;4.87;;;30.80;68.10;;;;;;5039888;28;20482;-73
2022/07/24 12:24:51;;;;;;;6.93;4.70;;;31.00;67.80;;;;;;5045286;28;20879;-73
2022/07/24 12:27:37;;;;;;;6.67;5.80;;;31.00;67.10;;;;;;5037580;28;20541;-74
2022/07/24 12:30:17;;;;;;;5.07;4.57;;;30.90;67.30;;;;;;5045398;28;20530;-73
2022/07/24 12:32:57;;;;;;;7.43;4.53;;;30.60;67.00;;;;;;5025759;28;20887;-73
2022/07/24 12:35:24;;;;;;;6.83;6.03;;;30.50;68.30;;;;;;5020947;28;20474;-74
2022/07/24 12:37:52;;;;;;;5.70;4.40;;;30.50;68.20;;;;;;5041658;28;20900;-73
2022/07/24 12:40:31;;;;;;;5.20;4.80;;;30.40;68.70;;;;;;5045600;28;20446;-73
2022/07/24 12:43:01;;;;;;;7.60;5.63;;;30.40;69.20;;;;;;5049889;28;21007;-74
2022/07/24 12:45:28;;;;;;;6.43;5.40;;;30.40;69.70;;;;;;5050418;28;20453;-75
2022/07/24 12:48:17;;;;;;;8.03;5.30;;;30.40;70.20;;;;;;5044473;28;20525;-73
2022/07/24 12:51:06;;;;;;;7.23;5.00;;;30.30;68.80;;;;;;5045868;28;20445;-74
2022/07/24 12:53:35;;;;;;;6.37;5.77;;;30.40;68.50;;;;;;5048574;28;20711;-73
2022/07/24 12:56:12;;;;;;;6.27;5.57;;;30.50;69.50;;;;;;5038831;28;20457;-74